createdAt,value
2017-03-07T00:00:07.914Z,24.4
2017-03-07T00:01:16.008Z,24.4
2017-03-07T00:02:24.100Z,24.4
2017-03-07T00:03:32.193Z,24.4
2017-03-07T00:04:40.286Z,24.4
2017-03-07T00:05:48.372Z,24.4
2017-03-07T00:06:56.469Z,24.4
2017-03-07T00:08:04.557Z,24.4
2017-03-07T00:09:12.648Z,24.4
2017-03-07T00:10:20.739Z,24.3
2017-03-07T00:11:28.834Z,24.4
2017-03-07T00:12:36.982Z,24.4
2017-03-07T00:13:45.014Z,24.4
2017-03-07T00:14:53.110Z,24.3
2017-03-07T00:16:01.197Z,24.3
2017-03-07T00:17:09.284Z,24.3
2017-03-07T00:18:17.375Z,24.2
2017-03-07T00:19:25.468Z,24.3
2017-03-07T00:20:33.569Z,24.2
2017-03-07T00:21:41.652Z,24.2
2017-03-07T00:22:49.749Z,24.2
2017-03-07T00:23:57.841Z,24.2
2017-03-07T00:25:05.927Z,24.2
2017-03-07T00:26:14.017Z,24.2
2017-03-07T00:27:22.107Z,24.2
2017-03-07T00:28:30.204Z,24.2
2017-03-07T00:29:38.294Z,24.2
2017-03-07T00:30:46.398Z,24.2
2017-03-07T00:31:54.473Z,24.1
2017-03-07T00:33:02.565Z,24.1
2017-03-07T00:34:10.652Z,24.1
2017-03-07T00:35:18.743Z,24.1
2017-03-07T00:36:26.835Z,24.1
2017-03-07T00:37:34.920Z,24.1
2017-03-07T00:38:43.011Z,24.1
2017-03-07T00:39:51.105Z,24.0
2017-03-07T00:40:59.191Z,24.1
2017-03-07T00:42:07.294Z,24.0
2017-03-07T00:43:15.387Z,24.0
2017-03-07T00:44:23.471Z,24.0
2017-03-07T00:45:31.560Z,23.9
2017-03-07T00:46:39.652Z,23.9
2017-03-07T00:47:47.744Z,24.0
2017-03-07T00:48:55.837Z,24.0
2017-03-07T00:50:03.923Z,24.0
2017-03-07T00:51:12.016Z,23.9
2017-03-07T00:52:20.103Z,23.9
2017-03-07T00:53:28.187Z,23.9
2017-03-07T00:54:36.283Z,23.9
2017-03-07T00:55:44.369Z,23.9
2017-03-07T00:56:52.459Z,23.9
2017-03-07T00:58:00.552Z,23.9
2017-03-07T00:59:08.639Z,23.9
2017-03-07T01:00:16.737Z,23.8
2017-03-07T01:01:24.829Z,23.9
2017-03-07T01:02:32.918Z,23.9
2017-03-07T01:03:41.012Z,23.8
2017-03-07T01:04:49.095Z,23.8
2017-03-07T01:05:57.186Z,23.8
2017-03-07T01:07:05.279Z,23.8
2017-03-07T01:08:13.373Z,23.7
2017-03-07T01:09:21.456Z,23.8
2017-03-07T01:10:29.557Z,23.8
2017-03-07T01:11:37.644Z,23.7
2017-03-07T01:12:45.732Z,23.8
2017-03-07T01:13:53.817Z,23.8
2017-03-07T01:15:01.921Z,23.7
2017-03-07T01:16:10.009Z,23.7
2017-03-07T01:17:18.093Z,23.7
2017-03-07T01:18:26.190Z,23.7
2017-03-07T01:19:34.278Z,23.7
2017-03-07T01:20:42.368Z,23.6
2017-03-07T01:21:50.459Z,23.6
2017-03-07T01:22:58.550Z,23.6
2017-03-07T01:24:06.650Z,23.6
2017-03-07T01:25:14.725Z,23.6
2017-03-07T01:26:22.823Z,23.6
2017-03-07T01:27:30.911Z,23.6
2017-03-07T01:28:38.995Z,23.6
2017-03-07T01:29:47.092Z,23.5
2017-03-07T01:30:55.177Z,23.6
2017-03-07T01:32:03.267Z,23.5
2017-03-07T01:33:11.451Z,23.5
2017-03-07T01:34:19.444Z,23.6
2017-03-07T01:35:27.533Z,23.5
2017-03-07T01:36:35.625Z,23.5
2017-03-07T01:37:43.712Z,23.5
2017-03-07T01:38:51.805Z,23.4
2017-03-07T01:39:59.898Z,23.5
2017-03-07T01:41:07.983Z,23.4
2017-03-07T01:42:16.077Z,23.4
2017-03-07T01:43:24.167Z,23.4
2017-03-07T01:44:32.248Z,23.4
2017-03-07T01:45:40.345Z,23.4
2017-03-07T01:46:48.435Z,23.4
2017-03-07T01:47:56.529Z,23.4
2017-03-07T01:49:04.615Z,23.4
2017-03-07T01:50:12.709Z,23.4
2017-03-07T01:51:20.793Z,23.3
2017-03-07T01:52:28.877Z,23.3
2017-03-07T01:53:36.969Z,23.3
2017-03-07T01:54:45.068Z,23.3
2017-03-07T01:55:53.151Z,23.4
2017-03-07T01:57:01.247Z,23.3
2017-03-07T01:58:09.337Z,23.2
2017-03-07T01:59:17.441Z,23.3
2017-03-07T02:00:25.506Z,23.2
2017-03-07T02:01:33.596Z,23.2
2017-03-07T02:02:41.686Z,23.1
2017-03-07T02:03:49.775Z,23.2
2017-03-07T02:04:57.872Z,23.2
2017-03-07T02:06:05.959Z,23.2
2017-03-07T02:07:14.045Z,23.1
2017-03-07T02:08:22.133Z,23.1
2017-03-07T02:09:30.223Z,23.1
2017-03-07T02:10:38.315Z,23.1
2017-03-07T02:11:46.401Z,23.2
2017-03-07T02:12:54.486Z,23.1
2017-03-07T02:14:02.583Z,23.1
2017-03-07T02:15:10.671Z,23.1
2017-03-07T02:16:18.754Z,23.1
2017-03-07T02:17:26.847Z,23.1
2017-03-07T02:18:34.932Z,23.0
2017-03-07T02:19:43.022Z,23.0
2017-03-07T02:20:51.110Z,23.0
2017-03-07T02:21:59.201Z,23.0
2017-03-07T02:23:07.293Z,23.0
2017-03-07T02:24:15.378Z,23.0
2017-03-07T02:25:23.466Z,23.0
2017-03-07T02:26:31.554Z,22.9
2017-03-07T02:27:39.642Z,23.0
2017-03-07T02:28:47.734Z,22.9
2017-03-07T02:29:55.820Z,22.9
2017-03-07T02:31:03.906Z,22.9
2017-03-07T02:32:11.995Z,22.8
2017-03-07T02:33:20.084Z,22.9
2017-03-07T02:34:28.172Z,22.8
2017-03-07T02:35:36.260Z,22.9
2017-03-07T02:36:44.342Z,22.8
2017-03-07T02:37:52.435Z,22.8
2017-03-07T02:39:00.532Z,22.8
2017-03-07T02:40:08.627Z,22.8
2017-03-07T02:41:16.715Z,22.8
2017-03-07T02:42:24.801Z,22.8
2017-03-07T02:43:32.891Z,22.8
2017-03-07T02:44:40.980Z,22.8
2017-03-07T02:45:49.070Z,22.8
2017-03-07T02:46:57.157Z,22.7
2017-03-07T02:48:05.243Z,22.6
2017-03-07T02:49:13.338Z,22.6
2017-03-07T02:50:21.438Z,22.6
2017-03-07T02:51:29.512Z,22.6
2017-03-07T02:52:37.602Z,22.7
2017-03-07T02:53:45.688Z,22.7
2017-03-07T02:54:53.779Z,22.6
2017-03-07T02:56:01.868Z,22.5
2017-03-07T02:57:09.961Z,22.6
2017-03-07T02:58:18.047Z,22.6
2017-03-07T02:59:26.136Z,22.5
2017-03-07T03:00:34.225Z,22.6
2017-03-07T03:01:42.311Z,22.6
2017-03-07T03:02:50.403Z,22.5
2017-03-07T03:03:58.489Z,22.5
2017-03-07T03:05:06.581Z,22.5
2017-03-07T03:06:14.664Z,22.5
2017-03-07T03:07:22.751Z,22.6
2017-03-07T03:08:30.844Z,22.4
2017-03-07T03:09:38.932Z,22.5
2017-03-07T03:10:47.019Z,22.4
2017-03-07T03:11:55.103Z,22.4
2017-03-07T03:13:03.200Z,22.3
2017-03-07T03:14:11.295Z,22.4
2017-03-07T03:15:19.380Z,22.3
2017-03-07T03:16:27.473Z,22.3
2017-03-07T03:17:35.564Z,22.3
2017-03-07T03:18:43.653Z,22.3
2017-03-07T03:19:51.741Z,22.3
2017-03-07T03:20:59.835Z,22.3
2017-03-07T03:22:07.924Z,22.2
2017-03-07T03:23:16.008Z,22.3
2017-03-07T03:24:24.095Z,22.2
2017-03-07T03:25:32.194Z,22.2
2017-03-07T03:26:40.278Z,22.2
2017-03-07T03:27:48.363Z,22.2
2017-03-07T03:28:56.459Z,22.2
2017-03-07T03:30:04.539Z,22.1
2017-03-07T03:31:12.629Z,22.1
2017-03-07T03:32:20.723Z,22.0
2017-03-07T03:33:28.809Z,22.1
2017-03-07T03:34:36.895Z,22.1
2017-03-07T03:35:44.982Z,22.1
2017-03-07T03:36:53.070Z,22.1
2017-03-07T03:38:01.160Z,22.1
2017-03-07T03:39:09.247Z,22.0
2017-03-07T03:40:17.337Z,22.1
2017-03-07T03:41:25.428Z,22.0
2017-03-07T03:42:33.518Z,21.9
2017-03-07T03:43:41.606Z,21.9
2017-03-07T03:44:49.699Z,21.9
2017-03-07T03:45:57.787Z,21.9
2017-03-07T03:47:05.869Z,21.9
2017-03-07T03:48:13.960Z,21.9
2017-03-07T03:49:22.047Z,21.9
2017-03-07T03:50:30.134Z,21.9
2017-03-07T03:51:38.228Z,21.8
2017-03-07T03:52:46.316Z,21.8
2017-03-07T03:53:54.408Z,21.8
2017-03-07T03:55:02.500Z,21.8
2017-03-07T03:56:10.588Z,21.8
2017-03-07T03:57:18.675Z,21.8
2017-03-07T03:58:26.760Z,21.7
2017-03-07T03:59:34.852Z,21.7
2017-03-07T04:00:42.938Z,21.8
2017-03-07T04:01:51.031Z,21.7
2017-03-07T04:02:59.109Z,21.6
2017-03-07T04:04:07.197Z,21.7
2017-03-07T04:05:15.284Z,21.6
2017-03-07T04:06:23.368Z,21.6
2017-03-07T04:07:31.455Z,21.6
2017-03-07T04:08:39.544Z,21.7
2017-03-07T04:09:47.626Z,21.6
2017-03-07T04:10:55.718Z,21.6
2017-03-07T04:12:03.806Z,21.7
2017-03-07T04:13:11.896Z,21.6
2017-03-07T04:14:19.982Z,21.6
2017-03-07T04:15:28.065Z,21.6
2017-03-07T04:16:36.157Z,21.6
2017-03-07T04:17:44.243Z,21.6
2017-03-07T04:18:52.430Z,21.6
2017-03-07T04:20:00.556Z,21.6
2017-03-07T04:21:08.520Z,21.6
2017-03-07T04:22:16.608Z,21.5
2017-03-07T04:23:24.698Z,21.5
2017-03-07T04:24:32.782Z,21.5
2017-03-07T04:25:40.867Z,21.5
2017-03-07T04:26:48.951Z,21.5
2017-03-07T04:27:57.045Z,21.4
2017-03-07T04:29:05.131Z,21.4
2017-03-07T04:30:13.209Z,21.4
2017-03-07T04:31:21.300Z,21.4
2017-03-07T04:32:29.389Z,21.4
2017-03-07T04:33:37.478Z,21.4
2017-03-07T04:34:45.603Z,21.4
2017-03-07T04:35:53.691Z,21.3
2017-03-07T04:37:01.755Z,21.3
2017-03-07T04:38:09.844Z,21.3
2017-03-07T04:39:17.932Z,21.4
2017-03-07T04:40:26.026Z,21.3
2017-03-07T04:41:34.105Z,21.3
2017-03-07T04:42:42.191Z,21.2
2017-03-07T04:43:50.281Z,21.3
2017-03-07T04:44:58.367Z,21.2
2017-03-07T04:46:06.455Z,21.3
2017-03-07T04:47:14.540Z,21.2
2017-03-07T04:48:22.626Z,21.1
2017-03-07T04:49:30.725Z,21.1
2017-03-07T04:50:38.808Z,21.1
2017-03-07T04:51:46.898Z,21.1
2017-03-07T04:52:54.983Z,21.1
2017-03-07T04:54:03.070Z,21.1
2017-03-07T04:55:11.155Z,21.1
2017-03-07T04:56:19.249Z,21.1
2017-03-07T04:57:27.331Z,21.0
2017-03-07T04:58:35.423Z,21.0
2017-03-07T04:59:43.509Z,21.1
2017-03-07T05:00:51.602Z,21.1
2017-03-07T05:01:59.689Z,21.0
2017-03-07T05:03:07.777Z,21.0
2017-03-07T05:04:15.866Z,21.1
2017-03-07T05:05:23.946Z,21.0
2017-03-07T05:06:32.040Z,20.9
2017-03-07T05:07:40.127Z,20.9
2017-03-07T05:08:48.209Z,20.9
2017-03-07T05:09:56.296Z,21.0
2017-03-07T05:11:04.386Z,20.9
2017-03-07T05:12:12.475Z,20.9
2017-03-07T05:13:20.564Z,20.9
2017-03-07T05:14:28.644Z,20.9
2017-03-07T05:15:36.735Z,20.9
2017-03-07T05:16:44.831Z,20.9
2017-03-07T05:17:52.915Z,20.9
2017-03-07T05:19:01.006Z,20.9
2017-03-07T05:20:09.095Z,20.8
2017-03-07T05:21:17.179Z,20.8
2017-03-07T05:22:25.273Z,20.8
2017-03-07T05:23:33.357Z,20.8
2017-03-07T05:24:41.441Z,20.7
2017-03-07T05:25:49.526Z,20.7
2017-03-07T05:26:57.615Z,20.8
2017-03-07T05:28:05.707Z,20.7
2017-03-07T05:29:13.789Z,20.7
2017-03-07T05:30:21.880Z,20.6
2017-03-07T05:31:29.975Z,20.7
2017-03-07T05:32:38.059Z,20.7
2017-03-07T05:33:46.144Z,20.7
2017-03-07T05:34:54.252Z,20.7
2017-03-07T05:36:02.326Z,20.7
2017-03-07T05:37:10.412Z,20.6
2017-03-07T05:38:18.503Z,20.6
2017-03-07T05:39:26.586Z,20.6
2017-03-07T05:40:34.675Z,20.5
2017-03-07T05:41:42.759Z,20.6
2017-03-07T05:42:50.852Z,20.5
2017-03-07T05:43:58.935Z,20.5
2017-03-07T05:45:07.019Z,20.5
2017-03-07T05:46:15.108Z,20.6
2017-03-07T05:47:23.195Z,20.5
2017-03-07T05:48:31.282Z,20.4
2017-03-07T05:49:39.369Z,20.4
2017-03-07T05:50:47.459Z,20.5
2017-03-07T05:51:55.544Z,20.4
2017-03-07T05:53:03.625Z,20.5
2017-03-07T05:54:11.717Z,20.5
2017-03-07T05:55:19.802Z,20.5
2017-03-07T05:56:27.893Z,20.5
2017-03-07T05:57:35.980Z,20.5
2017-03-07T05:58:44.066Z,20.3
2017-03-07T05:59:52.155Z,20.4
2017-03-07T06:01:00.237Z,20.3
2017-03-07T06:02:08.335Z,20.4
2017-03-07T06:03:16.419Z,20.4
2017-03-07T06:04:24.508Z,20.4
2017-03-07T06:05:32.595Z,20.3
2017-03-07T06:06:40.681Z,20.4
2017-03-07T06:07:48.765Z,20.4
2017-03-07T06:08:56.851Z,20.3
2017-03-07T06:10:04.940Z,20.3
2017-03-07T06:11:13.023Z,20.3
2017-03-07T06:12:21.116Z,20.3
2017-03-07T06:13:29.241Z,20.2
2017-03-07T06:14:37.299Z,20.2
2017-03-07T06:15:45.393Z,20.2
2017-03-07T06:16:53.475Z,20.2
2017-03-07T06:18:01.565Z,20.2
2017-03-07T06:19:09.646Z,20.1
2017-03-07T06:20:17.741Z,20.2
2017-03-07T06:21:25.826Z,20.1
2017-03-07T06:22:33.916Z,20.1
2017-03-07T06:23:41.995Z,20.1
2017-03-07T06:24:50.080Z,20.1
2017-03-07T06:25:58.175Z,20.2
2017-03-07T06:27:06.261Z,20.1
2017-03-07T06:28:14.346Z,20.1
2017-03-07T06:29:22.439Z,20.1
2017-03-07T06:30:30.530Z,20.1
2017-03-07T06:31:38.610Z,20.1
2017-03-07T06:32:46.700Z,20.1
2017-03-07T06:33:54.785Z,20.1
2017-03-07T06:35:02.877Z,20.0
2017-03-07T06:36:10.960Z,20.1
2017-03-07T06:37:19.055Z,20.0
2017-03-07T06:38:27.140Z,20.0
2017-03-07T06:39:35.234Z,20.1
2017-03-07T06:40:43.315Z,20.0
2017-03-07T06:41:51.407Z,19.9
2017-03-07T06:42:59.491Z,19.9
2017-03-07T06:44:07.582Z,19.9
2017-03-07T06:45:15.677Z,19.9
2017-03-07T06:46:23.761Z,20.0
2017-03-07T06:47:31.844Z,19.9
2017-03-07T06:48:39.929Z,20.0
2017-03-07T06:49:48.021Z,19.9
2017-03-07T06:50:56.110Z,19.9
2017-03-07T06:52:04.192Z,19.9
2017-03-07T06:53:12.279Z,19.9
2017-03-07T06:54:20.604Z,19.9
2017-03-07T06:55:28.603Z,19.9
2017-03-07T06:56:36.578Z,19.9
2017-03-07T06:57:44.627Z,19.9
2017-03-07T06:58:52.712Z,19.8
2017-03-07T07:00:00.971Z,19.8
2017-03-07T07:01:08.878Z,19.8
2017-03-07T07:02:16.981Z,19.8
2017-03-07T07:03:25.068Z,19.8
2017-03-07T07:04:33.170Z,19.8
2017-03-07T07:05:41.254Z,19.9
2017-03-07T07:06:49.340Z,19.9
2017-03-07T07:07:57.424Z,19.8
2017-03-07T07:09:05.519Z,19.8
2017-03-07T07:10:13.615Z,19.7
2017-03-07T07:11:21.689Z,19.8
2017-03-07T07:12:29.779Z,19.9
2017-03-07T07:13:38.100Z,19.9
2017-03-07T07:14:45.949Z,19.9
2017-03-07T07:15:54.037Z,19.8
2017-03-07T07:17:02.129Z,19.8
2017-03-07T07:18:10.217Z,19.8
2017-03-07T07:19:18.303Z,19.9
2017-03-07T07:20:26.390Z,19.9
2017-03-07T07:21:34.478Z,19.9
2017-03-07T07:22:42.565Z,19.9
2017-03-07T07:23:50.879Z,19.9
2017-03-07T07:24:58.737Z,19.9
2017-03-07T07:26:06.841Z,19.9
2017-03-07T07:27:14.915Z,19.9
2017-03-07T07:28:23.000Z,19.9
2017-03-07T07:29:31.088Z,19.9
2017-03-07T07:30:39.291Z,20.0
2017-03-07T07:31:47.263Z,19.9
2017-03-07T07:32:55.349Z,19.9
2017-03-07T07:34:03.437Z,19.9
2017-03-07T07:35:11.516Z,19.9
2017-03-07T07:36:19.606Z,19.9
2017-03-07T07:37:27.689Z,20.0
2017-03-07T07:38:35.782Z,19.9
2017-03-07T07:39:43.864Z,19.9
2017-03-07T07:40:51.954Z,20.0
2017-03-07T07:42:00.040Z,19.9
2017-03-07T07:43:08.119Z,20.0
2017-03-07T07:44:16.212Z,19.9
2017-03-07T07:45:24.303Z,19.9
2017-03-07T07:46:32.383Z,20.0
2017-03-07T07:47:40.499Z,20.0
2017-03-07T07:48:48.565Z,20.0
2017-03-07T07:49:56.656Z,20.0
2017-03-07T07:51:04.742Z,19.9
2017-03-07T07:52:13.414Z,20.0
2017-03-07T07:53:20.920Z,20.0
2017-03-07T07:54:28.998Z,20.0
2017-03-07T07:55:37.091Z,20.1
2017-03-07T07:56:45.180Z,20.0
2017-03-07T07:57:53.352Z,20.1
2017-03-07T07:59:01.348Z,20.1
2017-03-07T08:00:09.443Z,20.2
2017-03-07T08:01:17.528Z,20.2
2017-03-07T08:02:25.843Z,20.2
2017-03-07T08:03:33.703Z,20.2
2017-03-07T08:04:41.788Z,20.2
2017-03-07T08:05:49.878Z,20.2
2017-03-07T08:06:57.961Z,20.3
2017-03-07T08:08:06.058Z,20.3
2017-03-07T08:09:14.142Z,20.3
2017-03-07T08:10:22.227Z,20.3
2017-03-07T08:11:30.319Z,20.4
2017-03-07T08:12:38.405Z,20.3
2017-03-07T08:13:46.498Z,20.4
2017-03-07T08:14:54.588Z,20.4
2017-03-07T08:16:02.676Z,20.4
2017-03-07T08:17:10.761Z,20.5
2017-03-07T08:18:18.843Z,20.5
2017-03-07T08:19:26.956Z,20.5
2017-03-07T08:20:35.021Z,20.5
2017-03-07T08:21:43.105Z,20.6
2017-03-07T08:22:51.191Z,20.6
2017-03-07T08:23:59.279Z,20.7
2017-03-07T08:25:07.396Z,20.7
2017-03-07T08:26:15.466Z,20.7
2017-03-07T08:27:23.553Z,20.6
2017-03-07T08:28:31.638Z,20.7
2017-03-07T08:29:39.721Z,20.7
2017-03-07T08:30:47.814Z,20.8
2017-03-07T08:31:55.905Z,20.8
2017-03-07T08:33:03.991Z,20.8
2017-03-07T08:34:12.074Z,20.8
2017-03-07T08:35:20.168Z,20.9
2017-03-07T08:36:28.262Z,20.9
2017-03-07T08:37:36.350Z,20.9
2017-03-07T08:38:44.433Z,20.9
2017-03-07T08:39:52.527Z,21.0
2017-03-07T08:41:00.616Z,21.1
2017-03-07T08:42:08.706Z,21.1
2017-03-07T08:43:16.813Z,21.0
2017-03-07T08:44:24.874Z,21.1
2017-03-07T08:45:32.959Z,21.1
2017-03-07T08:46:41.088Z,21.1
2017-03-07T08:47:49.139Z,21.1
2017-03-07T08:48:57.228Z,21.2
2017-03-07T08:50:05.317Z,21.1
2017-03-07T08:51:13.401Z,21.1
2017-03-07T08:52:21.485Z,21.2
2017-03-07T08:53:29.567Z,21.2
2017-03-07T08:54:37.654Z,21.2
2017-03-07T08:55:45.745Z,21.2
2017-03-07T08:56:53.838Z,21.2
2017-03-07T08:58:01.927Z,21.3
2017-03-07T08:59:10.024Z,21.3
2017-03-07T09:00:18.116Z,21.3
2017-03-07T09:01:26.207Z,21.3
2017-03-07T09:02:34.293Z,21.3
2017-03-07T09:03:42.390Z,21.3
2017-03-07T09:04:50.475Z,21.3
2017-03-07T09:05:58.562Z,21.3
2017-03-07T09:07:06.654Z,21.3
2017-03-07T09:08:14.739Z,21.3
2017-03-07T09:09:22.830Z,21.4
2017-03-07T09:10:30.924Z,21.4
2017-03-07T09:11:39.223Z,21.4
2017-03-07T09:12:47.099Z,21.4
2017-03-07T09:13:55.183Z,21.4
2017-03-07T09:15:03.274Z,21.4
2017-03-07T09:16:11.358Z,21.4
2017-03-07T09:17:19.445Z,21.4
2017-03-07T09:18:27.535Z,21.4
2017-03-07T09:19:35.626Z,21.5
2017-03-07T09:20:43.707Z,21.4
2017-03-07T09:21:51.798Z,21.5
2017-03-07T09:22:59.891Z,21.5
2017-03-07T09:24:07.980Z,21.5
2017-03-07T09:25:16.065Z,21.5
2017-03-07T09:26:24.151Z,21.5
2017-03-07T09:27:32.239Z,21.6
2017-03-07T09:28:40.346Z,21.5
2017-03-07T09:29:48.432Z,21.5
2017-03-07T09:30:56.525Z,21.5
2017-03-07T09:32:04.609Z,21.5
2017-03-07T09:33:12.702Z,21.5
2017-03-07T09:34:20.792Z,21.6
2017-03-07T09:35:28.877Z,21.5
2017-03-07T09:36:36.968Z,21.5
2017-03-07T09:37:45.098Z,21.5
2017-03-07T09:38:53.146Z,21.5
2017-03-07T09:40:01.238Z,21.5
2017-03-07T09:41:09.327Z,21.5
2017-03-07T09:42:17.418Z,21.6
2017-03-07T09:43:25.516Z,21.6
2017-03-07T09:44:33.604Z,21.5
2017-03-07T09:45:41.694Z,21.6
2017-03-07T09:46:49.788Z,21.5
2017-03-07T09:47:57.877Z,21.6
2017-03-07T09:49:05.971Z,21.6
2017-03-07T09:50:14.061Z,21.5
2017-03-07T09:51:22.165Z,21.6
2017-03-07T09:52:30.246Z,21.6
2017-03-07T09:53:38.330Z,21.6
2017-03-07T09:54:46.419Z,21.5
2017-03-07T09:55:54.506Z,21.5
2017-03-07T09:57:02.593Z,21.5
2017-03-07T09:58:10.683Z,21.5
2017-03-07T09:59:18.772Z,21.5
2017-03-07T10:00:26.858Z,21.5
2017-03-07T10:01:34.943Z,21.5
2017-03-07T10:02:43.042Z,21.5
2017-03-07T10:03:51.130Z,21.5
2017-03-07T10:04:59.217Z,21.5
2017-03-07T10:06:07.303Z,21.5
2017-03-07T10:07:15.392Z,21.5
2017-03-07T10:08:23.476Z,21.4
2017-03-07T10:09:31.563Z,21.6
2017-03-07T10:10:39.656Z,21.5
2017-03-07T10:11:47.745Z,21.5
2017-03-07T10:12:55.832Z,21.5
2017-03-07T10:14:03.930Z,21.4
2017-03-07T10:15:12.015Z,21.5
2017-03-07T10:16:20.103Z,21.5
2017-03-07T10:17:28.191Z,21.5
2017-03-07T10:18:36.281Z,21.5
2017-03-07T10:19:44.366Z,21.5
2017-03-07T10:20:52.459Z,21.5
2017-03-07T10:22:00.552Z,21.5
2017-03-07T10:23:08.637Z,21.5
2017-03-07T10:24:16.724Z,21.4
2017-03-07T10:25:24.813Z,21.4
2017-03-07T10:26:32.900Z,21.4
2017-03-07T10:27:40.994Z,21.4
2017-03-07T10:28:49.075Z,21.3
2017-03-07T10:29:57.167Z,21.4
2017-03-07T10:31:05.255Z,21.4
2017-03-07T10:32:13.340Z,21.4
2017-03-07T10:33:21.429Z,21.4
2017-03-07T10:34:29.512Z,21.4
2017-03-07T10:35:37.608Z,21.4
2017-03-07T10:36:45.773Z,21.4
2017-03-07T10:37:53.782Z,21.4
2017-03-07T10:39:01.868Z,21.4
2017-03-07T10:40:09.962Z,21.4
2017-03-07T10:41:18.049Z,21.4
2017-03-07T10:42:26.137Z,21.3
2017-03-07T10:43:34.227Z,21.3
2017-03-07T10:44:42.311Z,21.3
2017-03-07T10:45:50.403Z,21.3
2017-03-07T10:46:58.488Z,21.4
2017-03-07T10:48:06.569Z,21.3
2017-03-07T10:49:14.667Z,21.3
2017-03-07T10:50:22.753Z,21.3
2017-03-07T10:51:30.847Z,21.3
2017-03-07T10:52:38.929Z,21.4
2017-03-07T10:53:47.077Z,21.4
2017-03-07T10:54:55.111Z,21.3
2017-03-07T10:56:03.194Z,21.3
2017-03-07T10:57:11.283Z,21.3
2017-03-07T10:58:19.373Z,21.3
2017-03-07T10:59:27.457Z,21.4
2017-03-07T11:00:35.542Z,21.3
2017-03-07T11:01:43.634Z,21.3
2017-03-07T11:02:51.725Z,21.3
2017-03-07T11:03:59.815Z,21.3
2017-03-07T11:05:07.901Z,21.3
2017-03-07T11:06:15.993Z,21.2
2017-03-07T11:07:24.081Z,21.3
2017-03-07T11:08:32.168Z,21.2
2017-03-07T11:09:40.258Z,21.2
2017-03-07T11:10:48.407Z,21.3
2017-03-07T11:11:56.430Z,21.2
2017-03-07T11:13:04.520Z,21.2
2017-03-07T11:14:12.605Z,21.3
2017-03-07T11:15:20.691Z,21.3
2017-03-07T11:16:28.778Z,21.3
2017-03-07T11:17:36.867Z,21.3
2017-03-07T11:18:44.956Z,21.2
2017-03-07T11:19:53.043Z,21.2
2017-03-07T11:21:01.132Z,21.3
2017-03-07T11:22:09.226Z,21.3
2017-03-07T11:23:17.316Z,21.2
2017-03-07T11:24:25.409Z,21.2
2017-03-07T11:25:33.497Z,21.2
2017-03-07T11:26:41.587Z,21.2
2017-03-07T11:27:49.675Z,21.2
2017-03-07T11:28:57.766Z,21.2
2017-03-07T11:30:05.850Z,21.1
2017-03-07T11:31:13.933Z,21.1
2017-03-07T11:32:22.023Z,21.0
2017-03-07T11:33:30.113Z,21.1
2017-03-07T11:34:38.197Z,21.0
2017-03-07T11:35:46.285Z,21.1
2017-03-07T11:36:54.384Z,21.1
2017-03-07T11:38:02.465Z,21.1
2017-03-07T11:39:10.556Z,21.0
2017-03-07T11:40:18.646Z,21.1
2017-03-07T11:41:26.741Z,21.1
2017-03-07T11:42:34.835Z,21.1
2017-03-07T11:43:42.915Z,21.1
2017-03-07T11:44:51.219Z,21.1
2017-03-07T11:45:59.325Z,21.1
2017-03-07T11:47:07.179Z,21.2
2017-03-07T11:48:15.271Z,21.1
2017-03-07T11:49:23.370Z,21.1
2017-03-07T11:50:31.449Z,21.2
2017-03-07T11:51:39.532Z,21.1
2017-03-07T11:52:47.627Z,21.2
2017-03-07T11:53:55.731Z,21.2
2017-03-07T11:55:03.800Z,21.2
2017-03-07T11:56:11.888Z,21.1
2017-03-07T11:57:19.972Z,21.2
2017-03-07T11:58:28.763Z,21.3
2017-03-07T11:59:36.151Z,21.2
2017-03-07T12:00:44.250Z,21.3
2017-03-07T12:01:52.337Z,21.3
2017-03-07T12:03:00.418Z,21.3
2017-03-07T12:04:08.662Z,21.3
2017-03-07T12:05:16.783Z,21.3
2017-03-07T12:06:24.704Z,21.3
2017-03-07T12:07:32.958Z,21.3
2017-03-07T12:08:41.043Z,21.4
2017-03-07T12:09:48.964Z,21.4
2017-03-07T12:10:57.052Z,21.4
2017-03-07T12:12:05.143Z,21.4
2017-03-07T12:13:13.232Z,21.4
2017-03-07T12:14:21.334Z,21.4
2017-03-07T12:15:29.419Z,21.6
2017-03-07T12:16:37.511Z,21.5
2017-03-07T12:17:45.598Z,21.6
2017-03-07T12:18:53.688Z,21.6
2017-03-07T12:20:01.777Z,21.6
2017-03-07T12:21:09.867Z,21.6
2017-03-07T12:22:17.950Z,21.6
2017-03-07T12:23:26.253Z,21.6
2017-03-07T12:24:34.131Z,21.6
2017-03-07T12:25:42.377Z,21.6
2017-03-07T12:26:50.301Z,21.6
2017-03-07T12:27:58.399Z,21.6
2017-03-07T12:29:06.633Z,21.6
2017-03-07T12:30:14.567Z,21.5
2017-03-07T12:31:22.813Z,21.6
2017-03-07T12:32:30.890Z,21.6
2017-03-07T12:33:38.986Z,21.7
2017-03-07T12:34:47.008Z,21.7
2017-03-07T12:35:55.030Z,21.7
2017-03-07T12:37:03.108Z,21.7
2017-03-07T12:38:11.584Z,21.7
2017-03-07T12:39:19.297Z,21.7
2017-03-07T12:40:27.531Z,21.8
2017-03-07T12:41:35.663Z,21.7
2017-03-07T12:42:43.554Z,21.8
2017-03-07T12:43:51.647Z,21.7
2017-03-07T12:44:59.772Z,21.8
2017-03-07T12:46:07.868Z,21.8
2017-03-07T12:47:15.935Z,21.8
2017-03-07T12:48:24.010Z,21.9
2017-03-07T12:49:32.086Z,21.9
2017-03-07T12:50:40.179Z,22.0
2017-03-07T12:51:48.310Z,21.9
2017-03-07T12:52:56.362Z,22.0
2017-03-07T12:54:04.447Z,21.9
2017-03-07T12:55:12.538Z,21.9
2017-03-07T12:56:20.651Z,22.1
2017-03-07T12:57:28.720Z,22.0
2017-03-07T12:58:36.806Z,22.0
2017-03-07T12:59:45.043Z,22.1
2017-03-07T13:00:53.153Z,22.1
2017-03-07T13:02:01.256Z,22.0
2017-03-07T13:03:09.162Z,22.1
2017-03-07T13:04:17.249Z,22.1
2017-03-07T13:05:25.394Z,22.1
2017-03-07T13:06:33.421Z,22.2
2017-03-07T13:07:41.517Z,22.2
2017-03-07T13:08:49.606Z,22.1
2017-03-07T13:09:57.693Z,22.2
2017-03-07T13:11:05.783Z,22.2
2017-03-07T13:12:13.875Z,22.3
2017-03-07T13:13:21.962Z,22.3
2017-03-07T13:14:30.044Z,22.3
2017-03-07T13:15:38.138Z,22.3
2017-03-07T13:16:46.232Z,22.2
2017-03-07T13:17:54.324Z,22.3
2017-03-07T13:19:02.420Z,22.3
2017-03-07T13:20:10.508Z,22.4
2017-03-07T13:21:18.597Z,22.4
2017-03-07T13:22:26.763Z,22.4
2017-03-07T13:23:34.799Z,22.5
2017-03-07T13:24:42.912Z,22.5
2017-03-07T13:25:50.945Z,22.6
2017-03-07T13:26:59.322Z,22.5
2017-03-07T13:28:07.296Z,22.5
2017-03-07T13:29:15.232Z,22.6
2017-03-07T13:30:23.316Z,22.6
2017-03-07T13:31:31.407Z,22.5
2017-03-07T13:32:39.507Z,22.6
2017-03-07T13:33:47.598Z,22.6
2017-03-07T13:34:55.697Z,22.6
2017-03-07T13:36:03.783Z,22.6
2017-03-07T13:37:11.875Z,22.6
2017-03-07T13:38:19.964Z,22.6
2017-03-07T13:39:28.216Z,22.6
2017-03-07T13:40:36.321Z,22.6
2017-03-07T13:41:44.232Z,22.6
2017-03-07T13:42:52.516Z,22.6
2017-03-07T13:44:00.408Z,22.7
2017-03-07T13:45:08.652Z,22.6
2017-03-07T13:46:16.581Z,22.7
2017-03-07T13:47:24.686Z,22.6
2017-03-07T13:48:32.770Z,22.7
2017-03-07T13:49:41.064Z,22.7
2017-03-07T13:50:48.945Z,22.7
2017-03-07T13:51:57.036Z,22.7
2017-03-07T13:53:05.136Z,22.7
2017-03-07T13:54:13.222Z,22.8
2017-03-07T13:55:21.331Z,22.7
2017-03-07T13:56:29.405Z,22.8
2017-03-07T13:57:37.490Z,22.7
2017-03-07T13:58:45.584Z,22.7
2017-03-07T13:59:53.821Z,22.8
2017-03-07T14:01:01.763Z,22.8
2017-03-07T14:02:09.864Z,22.8
2017-03-07T14:03:18.132Z,22.8
2017-03-07T14:04:26.047Z,22.9
2017-03-07T14:05:34.288Z,22.8
2017-03-07T14:06:42.228Z,22.9
2017-03-07T14:07:50.669Z,22.9
2017-03-07T14:08:58.656Z,22.9
2017-03-07T14:10:06.630Z,23.0
2017-03-07T14:11:14.655Z,22.9
2017-03-07T14:12:23.180Z,23.0
2017-03-07T14:13:31.098Z,23.0
2017-03-07T14:14:38.920Z,22.9
2017-03-07T14:15:47.489Z,23.0
2017-03-07T14:16:55.529Z,22.9
2017-03-07T14:18:03.196Z,23.0
2017-03-07T14:19:11.673Z,22.9
2017-03-07T14:20:19.520Z,22.9
2017-03-07T14:21:27.572Z,23.0
2017-03-07T14:22:37.159Z,22.9
2017-03-07T14:23:43.969Z,22.9
2017-03-07T14:24:51.989Z,23.0
2017-03-07T14:25:59.975Z,23.0
2017-03-07T14:27:07.935Z,23.1
2017-03-07T14:28:16.345Z,23.1
2017-03-07T14:29:24.785Z,23.1
2017-03-07T14:30:32.216Z,23.1
2017-03-07T14:31:40.715Z,23.1
2017-03-07T14:32:48.384Z,23.1
2017-03-07T14:33:56.613Z,23.1
2017-03-07T14:35:04.744Z,23.1
2017-03-07T14:36:12.874Z,23.1
2017-03-07T14:37:20.894Z,23.0
2017-03-07T14:38:28.930Z,23.1
2017-03-07T14:39:37.009Z,23.1
2017-03-07T14:40:45.256Z,23.1
2017-03-07T14:41:53.390Z,23.1
2017-03-07T14:43:01.613Z,23.1
2017-03-07T14:44:09.372Z,23.1
2017-03-07T14:45:17.541Z,23.1
2017-03-07T14:46:25.701Z,23.2
2017-03-07T14:47:33.771Z,23.1
2017-03-07T14:48:41.947Z,23.2
2017-03-07T14:49:49.922Z,23.2
2017-03-07T14:50:57.772Z,23.2
2017-03-07T14:52:06.142Z,23.1
2017-03-07T14:53:14.251Z,23.1
2017-03-07T14:54:22.184Z,23.1
2017-03-07T14:55:30.560Z,23.1
2017-03-07T14:56:38.471Z,23.2
2017-03-07T14:57:46.507Z,23.2
2017-03-07T14:58:54.618Z,23.2
2017-03-07T15:00:03.041Z,23.1
2017-03-07T15:01:10.618Z,23.2
2017-03-07T15:02:19.456Z,23.1
2017-03-07T15:03:27.193Z,23.2
2017-03-07T15:04:35.499Z,23.2
2017-03-07T15:05:42.905Z,23.2